Results



WK Veteranen en Snelle Tour (23/1)

Criterium Heren A en B, Dames, Criterium Snelle Toer, Veteranen (24/1)

1e grote AET Toertocht (25/1)

Aart Koopmans Memorial (26/1)

Criterium Heren A en B, Dames (28/1)

2e grote AET Toertocht (29/1)

Essent Open Nederlandse Kampioenschappen (30/1)

Wedstrijd voor Heren A en B, Dames (31/1)

3e grote AET Toertocht (1/2)

Essent Alternatieve Elfstedentocht (2/2)







Aart Koopmans Memorial (26/1)

Afstand Categorie
Zoek Veld Zoek op
[ Ververs ]
Stand # Naam Plaats/Land Ronden Tijd km/h km
1 010 Renť Ruitenberg Safan () 8 2:04:11.8 38.65 80.00
2 055 Ruud Aerts Beelen Sloopwerken () 8 2:04:12.1 38.65 80.00
3 023 Martijn van Es Team TNT Express () 8 2:04:12.2 38.65 80.00
4 067 Martijn Bovenmars InterCarParts/Vlasman () 8 2:04:13.1 38.64 80.00
5 038 Geert-Jan van der Wal Nefit HR Ketels () 8 2:04:13.5 38.64 80.00
6 016 Jeroen de Vries Time Out Sport/Vrieling () 8 2:04:13.6 38.64 80.00
7 032 Sander Kingma BAM Schaatsteam () 8 2:04:13.9 38.64 80.00
8 022 Joost Juffermans Team TNT Express () 8 2:04:14.3 38.64 80.00
9 024 Bert Jan van der Veen Time Out Sport/Vrieling () 8 2:04:14.4 38.63 80.00
10 008 Arjan Stroetinga BAM Schaatsteam () 8 2:04:14.6 38.63 80.00
11 B25 Peter van de Pol Beelen Sloopwerken () 8 2:04:14.6 38.63 80.00
12 078 Karlo Timmerman Equipe Renault () 8 2:04:14.6 38.63 80.00
13 035 Roy Boeve Beelen Sloopwerken () 8 2:04:14.8 38.63 80.00
14 056 Martijn Kromkamp Beelen Sloopwerken () 8 2:04:15.1 38.63 80.00
15 028 Sandor Stuut InterCarParts/Vlasman () 8 2:04:15.2 38.63 80.00
16 011 Yoeri Lissenberg Adformatie/Jobnews () 8 2:04:15.5 38.63 80.00
17 043 Cees Juffermans Team TNT Express () 8 2:04:15.7 38.63 80.00
18 B03 Rudi Groenendal () 8 2:04:15.9 38.63 80.00
19 029 Joost Vink Beelen Sloopwerken () 8 2:04:16.1 38.63 80.00
20 005 Henk Angenent Team TNT Express () 8 2:04:16.1 38.63 80.00
21 075 Rob Hadders Equipe Renault () 8 2:04:16.3 38.63 80.00
22 104 Jasper van Tol Goesting.nl () 8 2:04:16.4 38.63 80.00
23 082 Gary Hekman Hunter Sportswear Team () 8 2:04:16.5 38.62 80.00
24 B64 Gerard Nijgh netalsindefilm.nl () 8 2:04:16.5 38.62 80.00
25 B53 Wayne Begg () 8 2:04:16.6 38.62 80.00
26 025 Lars Hoogenboom Adformatie/Jobnews () 8 2:04:16.9 38.62 80.00
27 103 Richard Sijm Viks Parket () 8 2:04:16.9 38.62 80.00
28 092 Bernhard Bouma Wessels-BMC-Mijnten () 8 2:04:17.2 38.62 80.00
29 007 Bob de Vries BAM Schaatsteam () 8 2:04:17.3 38.62 80.00
30 070 Bram Bruschke InterCarParts/Vlasman () 8 2:04:17.4 38.62 80.00
31 B02 Klaas van der Wal Haijma Stiens () 8 2:04:17.5 38.62 80.00
32 076 Christijn Groeneveld Equipe Renault () 8 2:04:17.5 38.62 80.00
33 049 Hermen van der Wal Power-Play.nl () 8 2:04:17.6 38.62 80.00
34 083 Jouke Hoogeveen Power-Play.nl () 8 2:04:17.8 38.62 80.00
35 B52 Ton Oomen Sport2000 Stehmann () 8 2:04:17.9 38.62 80.00
36 026 Casper Helling Safan () 8 2:04:18.1 38.62 80.00
37 111 Durk Fabriek Haak-Bional-Jovetra () 8 2:04:18.2 38.62 80.00
38 093 Hans van de Wetering Wessels-BMC-Mijnten () 8 2:04:18.5 38.61 80.00
39 046 Arjen Becker PGM Bakker Vastgoed () 8 2:04:18.6 38.61 80.00
40 018 Peter Baars DSB Bank () 8 2:04:18.8 38.61 80.00
41 045 Frank Woltman PGM Bakker Vastgoed () 8 2:04:19.2 38.61 80.00
42 105 Rick van Leersum Goesting.nl () 8 2:04:19.3 38.61 80.00
43 040 Willem Hut BAM Schaatsteam () 8 2:04:19.4 38.61 80.00
44 069 Koos Kortekaas InterCarParts/Vlasman () 8 2:04:19.4 38.61 80.00
45 B20 Gerrit de Zwaan Mijnten () 8 2:04:19.5 38.61 80.00
46 087 Jochem Janssen Foekens () 8 2:04:19.7 38.61 80.00
47 100 Tonny van Vliet Viks Parket () 8 2:04:19.7 38.61 80.00
48 B31 Stefan Teeuwen Goesting.nl () 8 2:04:19.9 38.61 80.00
49 B10 Christian Gert Hoen GIBO-BEKA () 8 2:04:20.0 38.61 80.00
50 102 Eric Bisschops Viks Parket () 8 2:04:20.3 38.60 80.00
51 047 Rutger ter Laak PGM Bakker Vastgoed () 8 2:04:20.3 38.60 80.00
52 012 Miel Rozendaal Time Out Sport/Vrieling () 8 2:04:20.5 38.60 80.00
53 021 Jorrit Bergsma Power-Play.nl () 8 2:04:21.0 38.60 80.00
54 036 Eelco Bakermans Time Out Sport/Vrieling () 8 2:04:22.1 38.60 80.00
55 068 Andrť Withaar InterCarParts/Vlasman () 8 2:04:22.7 38.59 80.00
56 B24 John van Dijk Biesterveld Diamantairs () 8 2:04:23.5 38.59 80.00
57 051 Peter de Vries DSB Bank () 8 2:04:24.0 38.59 80.00
58 B55 Stan van den Berg Vrije Universiteit Amsterdam () 8 2:04:26.1 38.57 80.00
59 027 Rob van Meggelen Adformatie/Jobnews () 8 2:04:32.0 38.54 80.00
60 054 Bert van Buren Adformatie/Jobnews () 8 2:04:38.4 38.51 80.00
61 002 Cedric Michaud Nefit HR Ketels () 8 2:04:52.5 38.44 80.00
62 058 Jaap Smit PGM Bakker Vastgoed () 8 2:05:02.8 38.39 80.00
63 108 Bart de Vries Haak-Bional-Jovetra () 8 2:05:15.7 38.32 80.00
64 097 Jochem Uithoven Bouw Consulting Twente () 8 2:05:16.1 38.32 80.00
65 B77 Dinant Nieuwkoop Sport2000 Stehmann () 8 2:05:21.1 38.29 80.00
66 052 Jens Zwitser DSB Bank () 8 2:05:35.0 38.22 80.00
67 110 Engbert de Vegt Haak-Bional-Jovetra () 8 2:05:37.5 38.21 80.00
68 004 Ingmar Berga DSB Bank () 8 2:06:24.9 37.97 80.00
69 089 Shane Dobbin DSB Bank () 8 2:06:40.5 37.89 80.00
70 014 Sjoerd Huisman Nefit HR Ketels () 8 2:06:40.5 37.89 80.00
71 B16 Peter Paauw netalsindefilm.nl () 8 2:06:48.3 37.85 80.00
72 020 Geert Plender Safan () 8 2:07:20.9 37.69 80.00
73 017 Jan van Oosterom Safan () 8 2:07:21.2 37.69 80.00
74 B73 Pieker Overmars (N) 8 2:08:53.7 37.24 80.00
75 B35 Tom Spaargaren Vrije Universiteit Amsterdam () 8 2:11:58.1 36.37 80.00
76 B30 Nick Uithoven Edso Software () 8 2:13:11.1 36.04 80.00
77 B91 Cees Schep Vrije Universiteit Amsterdam () 8 2:13:11.4 36.04 80.00
78 706 Henri Heijltjes Nijmegen (N) 8 2:13:32.0 35.95 80.00
79 077 Emiel Blauw Equipe Renault () 7 1:49:31.0 38.35 70.00
80 107 Erik-Jan Spijkerman Goesting.nl () 7 1:51:43.8 37.59 70.00
81 071 Bart Hakkenberg InterCarParts/Vlasman () 7 1:52:33.6 37.31 70.00
82 094 Timo Verkaaik Wessels-BMC-Mijnten () 7 1:53:50.8 36.89 70.00
83 109 Gerrit Albada Haak-Bional-Jovetra () 7 1:55:51.6 36.25 70.00
84 B59 Wilbert Zielman () 7 2:00:58.2 34.72 70.00
85 095 Joost de Ouden Wessels-BMC-Mijnten () 7 2:05:17.5 33.52 70.00
86 710 Jan Palenstijn Zwaag (N) 7 2:07:17.5 33.00 70.00
87 707 Teade Wiersma Hardegarijp (N) 7 2:08:12.5 32.76 70.00
88 009 Tristan Loy BAM Schaatsteam () 6 1:33:57.6 38.31 60.00
89 B47 Ferry de Jong Viks Parket () 6 1:34:00.4 38.30 60.00
90 705 Rintje Ritsma Lemmer (N) 6 1:34:01.8 38.29 60.00
91 050 Stephan Wielinga Power-Play.nl () 6 1:34:03.3 38.28 60.00
92 101 Ties Wielinga Viks Parket () 6 1:34:08.5 38.24 60.00
93 106 Ytzen Faber Goesting.nl () 6 1:36:00.6 37.50 60.00
94 712 Edwin Mellema Veendam (N) 6 1:36:17.2 37.39 60.00
95 B62 Jelmer Looijesteijn netalsindefilm.nl () 6 1:44:07.7 34.57 60.00
96 708 Piet Hettinga Heeg (N) 6 1:46:35.7 33.77 60.00
97 709 Herman Pouwels Steenwijk (N) 6 1:46:38.7 33.76 60.00
98 D05 DaniŽlle Bekkering Frisia Financieringen () 6 1:48:52.6 33.07 60.00
99 D49 Andrea Sikkema Van der Wiel () 6 1:48:52.7 33.06 60.00
100 D10 Jolanda Langeland Steenbergen Fietsen () 6 1:48:52.7 33.06 60.00
[ Volgende ]
425 Gevonden resultaten - Pagina's: 1 | 2 | 3 | 4 | 5